Millvale, Pennsylvania
Current Conditions -  °F | °C
As of 7:53 AM on Thursday 30 Oct 2014 (Local Time) from KAGC Reporting Station
Clear Clear  
Wind Chill: 32°   Ceiling: Unl
Heat Index: 38°   Visibility: 8mi
Dew Point: 32°   Wind: 8mph
Humidity: 79%   Direction: 260°W
Pressure: 30.07"   Gusts: NA
Location:  40.5015°N, 79.9773°W
Report Text: KAGC 301153Z 26007KT 8SM CLR 03/00 A3007 RMK AO2 SLP193 T00330000 10056 20033 51010
Loading
Personal Weather Stations






























Interactive Weather Map
Tropical Storm Tracking
New forecast layout! Learn more

10-Day Weather Forecast

Advertisements
Track Severe Weather on mobile